sensor_id;sensor_type;location;lat;lon;timestamp;P1;durP1;ratioP1;P2;durP2;ratioP2
10947;SDS011;5526;42.070;24.752;2022-07-25T00:01:12;23.77;;;9.70;;
10947;SDS011;5526;42.070;24.752;2022-07-25T00:03:39;9.63;;;8.73;;
10947;SDS011;5526;42.070;24.752;2022-07-25T00:06:07;9.32;;;8.45;;
10947;SDS011;5526;42.070;24.752;2022-07-25T00:08:34;8.80;;;7.95;;
10947;SDS011;5526;42.070;24.752;2022-07-25T00:11:01;11.30;;;8.35;;
10947;SDS011;5526;42.070;24.752;2022-07-25T00:13:29;9.32;;;8.43;;
10947;SDS011;5526;42.070;24.752;2022-07-25T00:15:56;11.00;;;8.85;;
10947;SDS011;5526;42.070;24.752;2022-07-25T00:18:23;11.85;;;9.32;;
10947;SDS011;5526;42.070;24.752;2022-07-25T00:20:50;9.23;;;8.50;;
10947;SDS011;5526;42.070;24.752;2022-07-25T00:23:17;10.60;;;9.52;;
10947;SDS011;5526;42.070;24.752;2022-07-25T00:25:44;11.27;;;10.20;;
10947;SDS011;5526;42.070;24.752;2022-07-25T00:28:11;13.10;;;11.90;;
10947;SDS011;5526;42.070;24.752;2022-07-25T00:30:39;13.55;;;11.70;;
10947;SDS011;5526;42.070;24.752;2022-07-25T00:33:06;13.48;;;12.27;;
10947;SDS011;5526;42.070;24.752;2022-07-25T00:35:33;14.18;;;12.77;;
10947;SDS011;5526;42.070;24.752;2022-07-25T00:38:00;14.50;;;13.10;;
10947;SDS011;5526;42.070;24.752;2022-07-25T00:40:27;13.45;;;12.25;;
10947;SDS011;5526;42.070;24.752;2022-07-25T00:42:54;13.18;;;12.07;;
10947;SDS011;5526;42.070;24.752;2022-07-25T00:45:21;13.63;;;12.30;;
10947;SDS011;5526;42.070;24.752;2022-07-25T00:47:49;13.20;;;12.10;;
10947;SDS011;5526;42.070;24.752;2022-07-25T00:50:16;12.77;;;11.65;;
10947;SDS011;5526;42.070;24.752;2022-07-25T00:52:43;12.93;;;11.88;;
10947;SDS011;5526;42.070;24.752;2022-07-25T00:55:11;11.32;;;10.48;;
10947;SDS011;5526;42.070;24.752;2022-07-25T00:57:38;11.45;;;10.55;;
10947;SDS011;5526;42.070;24.752;2022-07-25T01:00:05;11.70;;;10.60;;
10947;SDS011;5526;42.070;24.752;2022-07-25T01:02:35;11.13;;;10.13;;
10947;SDS011;5526;42.070;24.752;2022-07-25T01:05:04;11.00;;;10.13;;
10947;SDS011;5526;42.070;24.752;2022-07-25T01:07:32;10.05;;;9.15;;
10947;SDS011;5526;42.070;24.752;2022-07-25T01:10:00;11.35;;;10.40;;
10947;SDS011;5526;42.070;24.752;2022-07-25T01:12:27;11.32;;;10.32;;
10947;SDS011;5526;42.070;24.752;2022-07-25T01:14:54;12.25;;;10.98;;
10947;SDS011;5526;42.070;24.752;2022-07-25T01:17:22;12.48;;;11.45;;
10947;SDS011;5526;42.070;24.752;2022-07-25T01:19:49;13.50;;;12.35;;
10947;SDS011;5526;42.070;24.752;2022-07-25T01:22:18;12.40;;;11.25;;
10947;SDS011;5526;42.070;24.752;2022-07-25T01:24:45;14.38;;;13.18;;
10947;SDS011;5526;42.070;24.752;2022-07-25T01:27:12;13.65;;;12.48;;
10947;SDS011;5526;42.070;24.752;2022-07-25T01:29:39;13.20;;;12.00;;
10947;SDS011;5526;42.070;24.752;2022-07-25T01:32:06;12.23;;;11.23;;
10947;SDS011;5526;42.070;24.752;2022-07-25T01:34:33;13.25;;;12.20;;
10947;SDS011;5526;42.070;24.752;2022-07-25T01:37:00;13.10;;;12.00;;
10947;SDS011;5526;42.070;24.752;2022-07-25T01:39:28;14.13;;;12.88;;
10947;SDS011;5526;42.070;24.752;2022-07-25T01:41:55;13.57;;;12.20;;
10947;SDS011;5526;42.070;24.752;2022-07-25T01:44:22;14.70;;;13.40;;
10947;SDS011;5526;42.070;24.752;2022-07-25T01:46:49;15.82;;;14.25;;
10947;SDS011;5526;42.070;24.752;2022-07-25T01:49:17;15.57;;;14.18;;
10947;SDS011;5526;42.070;24.752;2022-07-25T01:51:44;14.85;;;13.52;;
10947;SDS011;5526;42.070;24.752;2022-07-25T01:54:11;14.63;;;13.23;;
10947;SDS011;5526;42.070;24.752;2022-07-25T01:56:42;14.40;;;13.20;;
10947;SDS011;5526;42.070;24.752;2022-07-25T01:59:10;14.00;;;12.90;;
10947;SDS011;5526;42.070;24.752;2022-07-25T02:01:37;12.38;;;11.30;;
10947;SDS011;5526;42.070;24.752;2022-07-25T02:04:04;13.95;;;12.70;;
10947;SDS011;5526;42.070;24.752;2022-07-25T02:06:31;12.40;;;11.50;;
10947;SDS011;5526;42.070;24.752;2022-07-25T02:08:59;12.35;;;11.38;;
10947;SDS011;5526;42.070;24.752;2022-07-25T02:11:26;12.32;;;11.43;;
10947;SDS011;5526;42.070;24.752;2022-07-25T02:13:54;12.48;;;11.48;;
10947;SDS011;5526;42.070;24.752;2022-07-25T02:16:21;12.55;;;11.52;;
10947;SDS011;5526;42.070;24.752;2022-07-25T02:18:48;12.57;;;11.57;;
10947;SDS011;5526;42.070;24.752;2022-07-25T02:21:15;12.35;;;11.35;;
10947;SDS011;5526;42.070;24.752;2022-07-25T02:23:42;12.15;;;11.20;;
10947;SDS011;5526;42.070;24.752;2022-07-25T02:26:10;12.30;;;11.23;;
10947;SDS011;5526;42.070;24.752;2022-07-25T02:28:37;11.63;;;10.73;;
10947;SDS011;5526;42.070;24.752;2022-07-25T02:31:05;11.63;;;10.73;;
10947;SDS011;5526;42.070;24.752;2022-07-25T02:33:33;13.38;;;12.27;;
10947;SDS011;5526;42.070;24.752;2022-07-25T02:36:00;12.60;;;11.68;;
10947;SDS011;5526;42.070;24.752;2022-07-25T02:38:27;12.98;;;11.98;;
10947;SDS011;5526;42.070;24.752;2022-07-25T02:40:54;13.35;;;12.35;;
10947;SDS011;5526;42.070;24.752;2022-07-25T02:43:21;13.73;;;12.63;;
10947;SDS011;5526;42.070;24.752;2022-07-25T02:45:48;11.88;;;10.98;;
10947;SDS011;5526;42.070;24.752;2022-07-25T02:48:16;13.35;;;12.20;;
10947;SDS011;5526;42.070;24.752;2022-07-25T02:50:43;13.35;;;12.18;;
10947;SDS011;5526;42.070;24.752;2022-07-25T02:53:10;13.77;;;12.65;;
10947;SDS011;5526;42.070;24.752;2022-07-25T02:55:37;13.15;;;12.07;;
10947;SDS011;5526;42.070;24.752;2022-07-25T02:58:04;13.38;;;12.27;;
10947;SDS011;5526;42.070;24.752;2022-07-25T03:00:31;14.88;;;13.75;;
10947;SDS011;5526;42.070;24.752;2022-07-25T03:02:58;13.82;;;12.63;;
10947;SDS011;5526;42.070;24.752;2022-07-25T03:05:26;13.10;;;12.10;;
10947;SDS011;5526;42.070;24.752;2022-07-25T03:07:53;13.52;;;12.43;;
10947;SDS011;5526;42.070;24.752;2022-07-25T03:10:20;13.35;;;12.23;;
10947;SDS011;5526;42.070;24.752;2022-07-25T03:12:47;15.07;;;13.88;;
10947;SDS011;5526;42.070;24.752;2022-07-25T03:15:14;14.77;;;13.57;;
10947;SDS011;5526;42.070;24.752;2022-07-25T03:17:41;13.02;;;11.98;;
10947;SDS011;5526;42.070;24.752;2022-07-25T03:20:08;12.75;;;11.75;;
10947;SDS011;5526;42.070;24.752;2022-07-25T03:22:37;11.43;;;10.63;;
10947;SDS011;5526;42.070;24.752;2022-07-25T03:25:04;12.02;;;11.05;;
10947;SDS011;5526;42.070;24.752;2022-07-25T03:27:32;11.95;;;11.05;;
10947;SDS011;5526;42.070;24.752;2022-07-25T03:29:59;11.90;;;11.00;;
10947;SDS011;5526;42.070;24.752;2022-07-25T03:32:26;10.27;;;9.48;;
10947;SDS011;5526;42.070;24.752;2022-07-25T03:34:53;11.55;;;10.70;;
10947;SDS011;5526;42.070;24.752;2022-07-25T03:37:20;10.82;;;9.93;;
10947;SDS011;5526;42.070;24.752;2022-07-25T03:39:48;10.73;;;9.95;;
10947;SDS011;5526;42.070;24.752;2022-07-25T03:42:15;10.90;;;9.57;;
10947;SDS011;5526;42.070;24.752;2022-07-25T03:44:42;10.55;;;9.85;;
10947;SDS011;5526;42.070;24.752;2022-07-25T03:47:09;10.18;;;9.48;;
10947;SDS011;5526;42.070;24.752;2022-07-25T03:49:36;10.77;;;9.98;;
10947;SDS011;5526;42.070;24.752;2022-07-25T03:52:03;10.38;;;9.57;;
10947;SDS011;5526;42.070;24.752;2022-07-25T03:54:30;10.77;;;9.88;;
10947;SDS011;5526;42.070;24.752;2022-07-25T03:56:59;9.95;;;9.23;;
10947;SDS011;5526;42.070;24.752;2022-07-25T03:59:26;10.50;;;9.68;;
10947;SDS011;5526;42.070;24.752;2022-07-25T04:01:53;10.20;;;9.40;;
10947;SDS011;5526;42.070;24.752;2022-07-25T04:04:19;9.88;;;9.18;;
10947;SDS011;5526;42.070;24.752;2022-07-25T04:06:46;9.90;;;9.10;;
10947;SDS011;5526;42.070;24.752;2022-07-25T04:09:13;10.43;;;9.63;;
10947;SDS011;5526;42.070;24.752;2022-07-25T04:11:41;10.60;;;9.70;;
10947;SDS011;5526;42.070;24.752;2022-07-25T04:14:10;10.32;;;9.52;;
10947;SDS011;5526;42.070;24.752;2022-07-25T04:16:37;10.63;;;9.90;;
10947;SDS011;5526;42.070;24.752;2022-07-25T04:19:04;10.73;;;9.88;;
10947;SDS011;5526;42.070;24.752;2022-07-25T04:21:31;10.55;;;9.65;;
10947;SDS011;5526;42.070;24.752;2022-07-25T04:23:58;10.43;;;9.63;;
10947;SDS011;5526;42.070;24.752;2022-07-25T04:26:25;10.27;;;9.48;;
10947;SDS011;5526;42.070;24.752;2022-07-25T04:28:52;8.90;;;8.20;;
10947;SDS011;5526;42.070;24.752;2022-07-25T04:31:23;8.82;;;8.13;;
10947;SDS011;5526;42.070;24.752;2022-07-25T04:33:50;9.73;;;8.98;;
10947;SDS011;5526;42.070;24.752;2022-07-25T04:36:17;9.85;;;9.05;;
10947;SDS011;5526;42.070;24.752;2022-07-25T04:38:44;10.32;;;9.52;;
10947;SDS011;5526;42.070;24.752;2022-07-25T04:41:11;9.93;;;9.02;;
10947;SDS011;5526;42.070;24.752;2022-07-25T04:58:13;9.13;;;8.52;;
10947;SDS011;5526;42.070;24.752;2022-07-25T05:00:40;8.82;;;8.23;;
10947;SDS011;5526;42.070;24.752;2022-07-25T05:03:07;9.07;;;8.38;;
10947;SDS011;5526;42.070;24.752;2022-07-25T05:05:34;8.40;;;7.60;;
10947;SDS011;5526;42.070;24.752;2022-07-25T05:08:02;8.80;;;8.10;;
10947;SDS011;5526;42.070;24.752;2022-07-25T05:10:29;8.80;;;8.00;;
10947;SDS011;5526;42.070;24.752;2022-07-25T05:12:57;8.75;;;7.95;;
10947;SDS011;5526;42.070;24.752;2022-07-25T05:15:25;8.52;;;7.75;;
10947;SDS011;5526;42.070;24.752;2022-07-25T05:17:52;8.27;;;7.45;;
10947;SDS011;5526;42.070;24.752;2022-07-25T05:20:20;8.27;;;7.57;;
10947;SDS011;5526;42.070;24.752;2022-07-25T05:22:47;8.77;;;8.00;;
10947;SDS011;5526;42.070;24.752;2022-07-25T05:25:14;9.57;;;8.75;;
10947;SDS011;5526;42.070;24.752;2022-07-25T05:27:41;8.65;;;7.93;;
10947;SDS011;5526;42.070;24.752;2022-07-25T05:30:09;9.02;;;8.30;;
10947;SDS011;5526;42.070;24.752;2022-07-25T05:32:39;8.68;;;7.88;;
10947;SDS011;5526;42.070;24.752;2022-07-25T05:35:07;9.43;;;8.52;;
10947;SDS011;5526;42.070;24.752;2022-07-25T05:37:35;9.07;;;8.38;;
10947;SDS011;5526;42.070;24.752;2022-07-25T05:40:03;8.60;;;7.97;;
10947;SDS011;5526;42.070;24.752;2022-07-25T05:42:32;10.10;;;9.10;;
10947;SDS011;5526;42.070;24.752;2022-07-25T05:44:59;8.70;;;7.95;;
10947;SDS011;5526;42.070;24.752;2022-07-25T05:47:26;9.00;;;8.25;;
10947;SDS011;5526;42.070;24.752;2022-07-25T05:49:55;8.95;;;8.30;;
10947;SDS011;5526;42.070;24.752;2022-07-25T05:52:22;9.75;;;8.85;;
10947;SDS011;5526;42.070;24.752;2022-07-25T05:54:49;8.90;;;8.20;;
10947;SDS011;5526;42.070;24.752;2022-07-25T05:57:16;8.82;;;8.00;;
10947;SDS011;5526;42.070;24.752;2022-07-25T05:59:44;8.48;;;7.85;;
10947;SDS011;5526;42.070;24.752;2022-07-25T06:02:11;8.07;;;7.47;;
10947;SDS011;5526;42.070;24.752;2022-07-25T06:04:38;8.57;;;7.88;;
10947;SDS011;5526;42.070;24.752;2022-07-25T06:07:07;8.80;;;8.10;;
10947;SDS011;5526;42.070;24.752;2022-07-25T06:09:34;9.07;;;8.15;;
10947;SDS011;5526;42.070;24.752;2022-07-25T06:12:01;8.18;;;7.57;;
10947;SDS011;5526;42.070;24.752;2022-07-25T06:14:29;8.00;;;7.40;;
10947;SDS011;5526;42.070;24.752;2022-07-25T06:16:56;7.97;;;7.28;;
10947;SDS011;5526;42.070;24.752;2022-07-25T06:19:23;8.52;;;7.93;;
10947;SDS011;5526;42.070;24.752;2022-07-25T06:21:50;8.65;;;8.05;;
10947;SDS011;5526;42.070;24.752;2022-07-25T06:24:19;9.30;;;8.25;;
10947;SDS011;5526;42.070;24.752;2022-07-25T06:26:46;8.57;;;7.90;;
10947;SDS011;5526;42.070;24.752;2022-07-25T06:29:13;9.02;;;8.25;;
10947;SDS011;5526;42.070;24.752;2022-07-25T06:31:41;8.68;;;7.90;;
10947;SDS011;5526;42.070;24.752;2022-07-25T06:34:08;8.48;;;7.78;;
10947;SDS011;5526;42.070;24.752;2022-07-25T06:36:35;8.38;;;7.65;;
10947;SDS011;5526;42.070;24.752;2022-07-25T06:39:02;8.85;;;8.15;;
10947;SDS011;5526;42.070;24.752;2022-07-25T06:41:31;8.73;;;7.95;;
10947;SDS011;5526;42.070;24.752;2022-07-25T06:43:58;7.90;;;7.40;;
10947;SDS011;5526;42.070;24.752;2022-07-25T06:46:25;8.52;;;7.80;;
10947;SDS011;5526;42.070;24.752;2022-07-25T06:48:55;8.68;;;7.95;;
10947;SDS011;5526;42.070;24.752;2022-07-25T06:51:22;8.15;;;7.45;;
10947;SDS011;5526;42.070;24.752;2022-07-25T06:53:50;8.32;;;7.63;;
10947;SDS011;5526;42.070;24.752;2022-07-25T06:56:17;8.43;;;7.82;;
10947;SDS011;5526;42.070;24.752;2022-07-25T06:58:46;8.35;;;7.75;;
10947;SDS011;5526;42.070;24.752;2022-07-25T07:01:13;8.10;;;7.38;;
10947;SDS011;5526;42.070;24.752;2022-07-25T07:03:40;8.15;;;7.47;;
10947;SDS011;5526;42.070;24.752;2022-07-25T07:06:07;7.97;;;7.45;;
10947;SDS011;5526;42.070;24.752;2022-07-25T07:08:35;8.43;;;7.78;;
10947;SDS011;5526;42.070;24.752;2022-07-25T07:11:03;7.70;;;7.10;;
10947;SDS011;5526;42.070;24.752;2022-07-25T07:13:30;8.48;;;7.85;;
10947;SDS011;5526;42.070;24.752;2022-07-25T07:15:59;8.57;;;7.88;;
10947;SDS011;5526;42.070;24.752;2022-07-25T07:18:26;8.10;;;7.47;;
10947;SDS011;5526;42.070;24.752;2022-07-25T07:20:54;8.07;;;7.43;;
10947;SDS011;5526;42.070;24.752;2022-07-25T07:23:21;8.20;;;7.60;;
10947;SDS011;5526;42.070;24.752;2022-07-25T07:25:48;8.20;;;7.60;;
10947;SDS011;5526;42.070;24.752;2022-07-25T07:28:15;8.07;;;7.47;;
10947;SDS011;5526;42.070;24.752;2022-07-25T07:30:43;7.97;;;7.38;;
10947;SDS011;5526;42.070;24.752;2022-07-25T07:33:11;8.40;;;7.80;;
10947;SDS011;5526;42.070;24.752;2022-07-25T07:35:42;7.80;;;7.25;;
10947;SDS011;5526;42.070;24.752;2022-07-25T07:38:09;8.63;;;7.75;;
10947;SDS011;5526;42.070;24.752;2022-07-25T07:40:37;7.97;;;7.38;;
10947;SDS011;5526;42.070;24.752;2022-07-25T07:43:04;8.48;;;7.80;;
10947;SDS011;5526;42.070;24.752;2022-07-25T07:45:31;8.60;;;8.00;;
10947;SDS011;5526;42.070;24.752;2022-07-25T07:47:59;8.60;;;7.80;;
10947;SDS011;5526;42.070;24.752;2022-07-25T07:50:28;7.95;;;7.45;;
10947;SDS011;5526;42.070;24.752;2022-07-25T07:52:56;8.23;;;7.63;;
10947;SDS011;5526;42.070;24.752;2022-07-25T07:55:24;8.55;;;7.82;;
10947;SDS011;5526;42.070;24.752;2022-07-25T07:58:08;8.13;;;7.53;;
10947;SDS011;5526;42.070;24.752;2022-07-25T08:00:37;8.23;;;7.72;;
10947;SDS011;5526;42.070;24.752;2022-07-25T08:03:05;8.60;;;7.95;;
10947;SDS011;5526;42.070;24.752;2022-07-25T08:05:35;7.55;;;7.10;;
10947;SDS011;5526;42.070;24.752;2022-07-25T08:08:04;8.00;;;7.40;;
10947;SDS011;5526;42.070;24.752;2022-07-25T08:10:33;8.18;;;7.47;;
10947;SDS011;5526;42.070;24.752;2022-07-25T08:13:10;8.30;;;7.60;;
10947;SDS011;5526;42.070;24.752;2022-07-25T08:15:39;7.95;;;7.35;;
10947;SDS011;5526;42.070;24.752;2022-07-25T08:18:06;8.27;;;7.63;;
10947;SDS011;5526;42.070;24.752;2022-07-25T08:20:35;8.00;;;7.43;;
10947;SDS011;5526;42.070;24.752;2022-07-25T08:23:03;8.10;;;7.60;;
10947;SDS011;5526;42.070;24.752;2022-07-25T08:25:31;8.48;;;7.78;;
10947;SDS011;5526;42.070;24.752;2022-07-25T08:27:58;7.97;;;7.38;;
10947;SDS011;5526;42.070;24.752;2022-07-25T08:30:26;7.80;;;7.30;;
10947;SDS011;5526;42.070;24.752;2022-07-25T08:32:54;7.97;;;7.38;;
10947;SDS011;5526;42.070;24.752;2022-07-25T08:35:24;8.25;;;7.65;;
10947;SDS011;5526;42.070;24.752;2022-07-25T08:37:54;7.55;;;7.05;;
10947;SDS011;5526;42.070;24.752;2022-07-25T08:40:22;8.23;;;7.47;;
10947;SDS011;5526;42.070;24.752;2022-07-25T08:42:51;7.75;;;7.15;;
10947;SDS011;5526;42.070;24.752;2022-07-25T08:45:21;7.65;;;7.10;;
10947;SDS011;5526;42.070;24.752;2022-07-25T08:47:49;8.20;;;7.60;;
10947;SDS011;5526;42.070;24.752;2022-07-25T08:50:19;8.30;;;7.70;;
10947;SDS011;5526;42.070;24.752;2022-07-25T08:52:48;8.18;;;7.57;;
10947;SDS011;5526;42.070;24.752;2022-07-25T08:55:18;8.05;;;7.35;;
10947;SDS011;5526;42.070;24.752;2022-07-25T08:57:47;8.63;;;7.78;;
10947;SDS011;5526;42.070;24.752;2022-07-25T09:00:16;8.93;;;8.23;;
10947;SDS011;5526;42.070;24.752;2022-07-25T09:02:50;8.45;;;7.85;;
10947;SDS011;5526;42.070;24.752;2022-07-25T09:05:18;8.65;;;7.93;;
10947;SDS011;5526;42.070;24.752;2022-07-25T09:07:46;8.40;;;7.70;;
10947;SDS011;5526;42.070;24.752;2022-07-25T09:10:14;8.30;;;7.65;;
10947;SDS011;5526;42.070;24.752;2022-07-25T09:12:49;9.00;;;8.02;;
10947;SDS011;5526;42.070;24.752;2022-07-25T09:15:25;7.72;;;7.22;;
10947;SDS011;5526;42.070;24.752;2022-07-25T09:17:54;7.80;;;7.30;;
10947;SDS011;5526;42.070;24.752;2022-07-25T09:20:23;7.82;;;7.28;;
10947;SDS011;5526;42.070;24.752;2022-07-25T09:22:51;7.57;;;6.97;;
10947;SDS011;5526;42.070;24.752;2022-07-25T09:25:20;7.90;;;7.30;;
10947;SDS011;5526;42.070;24.752;2022-07-25T09:27:49;8.45;;;7.75;;
10947;SDS011;5526;42.070;24.752;2022-07-25T09:30:17;6.90;;;6.40;;
10947;SDS011;5526;42.070;24.752;2022-07-25T09:32:45;8.15;;;7.55;;
10947;SDS011;5526;42.070;24.752;2022-07-25T09:35:13;7.55;;;7.05;;
10947;SDS011;5526;42.070;24.752;2022-07-25T09:37:40;7.82;;;7.22;;
10947;SDS011;5526;42.070;24.752;2022-07-25T09:40:11;7.43;;;6.90;;
10947;SDS011;5526;42.070;24.752;2022-07-25T09:42:41;7.38;;;6.88;;
10947;SDS011;5526;42.070;24.752;2022-07-25T09:45:11;6.97;;;6.50;;
10947;SDS011;5526;42.070;24.752;2022-07-25T09:47:49;8.00;;;7.30;;
10947;SDS011;5526;42.070;24.752;2022-07-25T09:50:18;8.30;;;7.70;;
10947;SDS011;5526;42.070;24.752;2022-07-25T09:52:45;7.38;;;6.97;;
10947;SDS011;5526;42.070;24.752;2022-07-25T09:55:13;7.30;;;6.80;;
10947;SDS011;5526;42.070;24.752;2022-07-25T09:57:42;7.68;;;7.18;;
10947;SDS011;5526;42.070;24.752;2022-07-25T10:00:12;7.53;;;6.95;;
10947;SDS011;5526;42.070;24.752;2022-07-25T10:02:44;7.40;;;6.90;;
10947;SDS011;5526;42.070;24.752;2022-07-25T10:05:15;7.05;;;6.65;;
10947;SDS011;5526;42.070;24.752;2022-07-25T10:07:51;7.20;;;6.60;;
10947;SDS011;5526;42.070;24.752;2022-07-25T10:10:20;7.78;;;7.22;;
10947;SDS011;5526;42.070;24.752;2022-07-25T10:12:58;8.50;;;7.80;;
10947;SDS011;5526;42.070;24.752;2022-07-25T10:15:37;7.97;;;7.47;;
10947;SDS011;5526;42.070;24.752;2022-07-25T10:18:09;8.38;;;7.53;;
10947;SDS011;5526;42.070;24.752;2022-07-25T10:20:37;8.40;;;7.80;;
10947;SDS011;5526;42.070;24.752;2022-07-25T10:23:15;8.05;;;7.45;;
10947;SDS011;5526;42.070;24.752;2022-07-25T10:25:43;8.32;;;7.78;;
10947;SDS011;5526;42.070;24.752;2022-07-25T10:28:14;8.02;;;7.45;;
10947;SDS011;5526;42.070;24.752;2022-07-25T10:30:44;8.05;;;7.55;;
10947;SDS011;5526;42.070;24.752;2022-07-25T10:33:12;8.05;;;7.45;;
10947;SDS011;5526;42.070;24.752;2022-07-25T10:35:40;8.18;;;7.40;;
10947;SDS011;5526;42.070;24.752;2022-07-25T10:38:07;8.32;;;7.72;;
10947;SDS011;5526;42.070;24.752;2022-07-25T10:40:36;8.43;;;7.82;;
10947;SDS011;5526;42.070;24.752;2022-07-25T10:43:08;8.52;;;7.93;;
10947;SDS011;5526;42.070;24.752;2022-07-25T10:45:40;8.25;;;7.65;;
10947;SDS011;5526;42.070;24.752;2022-07-25T10:48:09;8.63;;;8.02;;
10947;SDS011;5526;42.070;24.752;2022-07-25T10:50:51;8.30;;;7.72;;
10947;SDS011;5526;42.070;24.752;2022-07-25T10:53:32;8.18;;;7.35;;
10947;SDS011;5526;42.070;24.752;2022-07-25T10:56:03;8.48;;;7.78;;
10947;SDS011;5526;42.070;24.752;2022-07-25T10:58:45;8.25;;;7.60;;
10947;SDS011;5526;42.070;24.752;2022-07-25T11:01:18;7.45;;;7.00;;
10947;SDS011;5526;42.070;24.752;2022-07-25T11:03:47;8.27;;;7.68;;
10947;SDS011;5526;42.070;24.752;2022-07-25T11:06:15;8.18;;;7.57;;
10947;SDS011;5526;42.070;24.752;2022-07-25T11:08:55;8.60;;;7.97;;
10947;SDS011;5526;42.070;24.752;2022-07-25T11:11:31;7.88;;;7.38;;
10947;SDS011;5526;42.070;24.752;2022-07-25T11:14:01;8.02;;;7.53;;
10947;SDS011;5526;42.070;24.752;2022-07-25T11:16:29;8.93;;;8.27;;
10947;SDS011;5526;42.070;24.752;2022-07-25T11:18:56;8.48;;;7.97;;
10947;SDS011;5526;42.070;24.752;2022-07-25T11:21:23;9.20;;;8.35;;
10947;SDS011;5526;42.070;24.752;2022-07-25T11:23:51;8.20;;;7.60;;
10947;SDS011;5526;42.070;24.752;2022-07-25T11:26:18;8.52;;;8.02;;
10947;SDS011;5526;42.070;24.752;2022-07-25T11:28:47;8.35;;;7.82;;
10947;SDS011;5526;42.070;24.752;2022-07-25T11:31:16;8.40;;;7.82;;
10947;SDS011;5526;42.070;24.752;2022-07-25T11:33:45;8.65;;;8.07;;
10947;SDS011;5526;42.070;24.752;2022-07-25T11:36:14;8.32;;;7.72;;
10947;SDS011;5526;42.070;24.752;2022-07-25T11:38:41;8.80;;;8.18;;
10947;SDS011;5526;42.070;24.752;2022-07-25T11:41:13;8.55;;;7.85;;
10947;SDS011;5526;42.070;24.752;2022-07-25T11:43:46;7.85;;;7.15;;
10947;SDS011;5526;42.070;24.752;2022-07-25T11:46:14;8.88;;;8.27;;
10947;SDS011;5526;42.070;24.752;2022-07-25T11:48:43;8.20;;;7.60;;
10947;SDS011;5526;42.070;24.752;2022-07-25T11:51:13;8.98;;;8.30;;
10947;SDS011;5526;42.070;24.752;2022-07-25T11:53:42;8.90;;;8.23;;
10947;SDS011;5526;42.070;24.752;2022-07-25T11:56:11;8.48;;;7.85;;
10947;SDS011;5526;42.070;24.752;2022-07-25T11:58:39;8.90;;;8.25;;
10947;SDS011;5526;42.070;24.752;2022-07-25T12:01:10;9.05;;;8.45;;
10947;SDS011;5526;42.070;24.752;2022-07-25T12:03:39;8.70;;;8.10;;
10947;SDS011;5526;42.070;24.752;2022-07-25T12:06:09;8.63;;;7.97;;
10947;SDS011;5526;42.070;24.752;2022-07-25T12:08:38;9.07;;;8.38;;
10947;SDS011;5526;42.070;24.752;2022-07-25T12:11:19;9.18;;;8.48;;
10947;SDS011;5526;42.070;24.752;2022-07-25T12:13:48;9.50;;;8.85;;
10947;SDS011;5526;42.070;24.752;2022-07-25T12:16:16;9.05;;;8.18;;
10947;SDS011;5526;42.070;24.752;2022-07-25T12:18:43;8.63;;;8.05;;
10947;SDS011;5526;42.070;24.752;2022-07-25T12:21:12;8.90;;;8.27;;
10947;SDS011;5526;42.070;24.752;2022-07-25T12:23:39;8.15;;;7.65;;
10947;SDS011;5526;42.070;24.752;2022-07-25T12:26:07;8.82;;;8.23;;
10947;SDS011;5526;42.070;24.752;2022-07-25T12:28:37;8.70;;;8.02;;
10947;SDS011;5526;42.070;24.752;2022-07-25T12:31:04;8.10;;;7.50;;
10947;SDS011;5526;42.070;24.752;2022-07-25T12:33:32;8.60;;;8.02;;
10947;SDS011;5526;42.070;24.752;2022-07-25T12:35:59;9.20;;;8.50;;
10947;SDS011;5526;42.070;24.752;2022-07-25T12:38:28;9.18;;;8.48;;
10947;SDS011;5526;42.070;24.752;2022-07-25T12:40:56;8.73;;;8.10;;
10947;SDS011;5526;42.070;24.752;2022-07-25T12:43:23;9.30;;;8.50;;
10947;SDS011;5526;42.070;24.752;2022-07-25T12:45:50;8.35;;;7.85;;
10947;SDS011;5526;42.070;24.752;2022-07-25T12:48:17;9.25;;;8.48;;
10947;SDS011;5526;42.070;24.752;2022-07-25T12:50:44;8.80;;;8.30;;
10947;SDS011;5526;42.070;24.752;2022-07-25T12:53:12;8.98;;;8.38;;
10947;SDS011;5526;42.070;24.752;2022-07-25T12:55:40;9.02;;;8.32;;
10947;SDS011;5526;42.070;24.752;2022-07-25T12:58:08;8.90;;;8.30;;
10947;SDS011;5526;42.070;24.752;2022-07-25T13:00:37;8.63;;;8.02;;
10947;SDS011;5526;42.070;24.752;2022-07-25T13:03:04;8.38;;;7.78;;
10947;SDS011;5526;42.070;24.752;2022-07-25T13:05:31;10.18;;;8.70;;
10947;SDS011;5526;42.070;24.752;2022-07-25T13:07:58;9.20;;;8.50;;
10947;SDS011;5526;42.070;24.752;2022-07-25T13:10:26;8.50;;;7.90;;
10947;SDS011;5526;42.070;24.752;2022-07-25T13:12:54;9.10;;;8.45;;
10947;SDS011;5526;42.070;24.752;2022-07-25T13:15:21;7.95;;;7.35;;
10947;SDS011;5526;42.070;24.752;2022-07-25T13:17:52;9.10;;;8.50;;
10947;SDS011;5526;42.070;24.752;2022-07-25T13:20:20;10.10;;;9.32;;
10947;SDS011;5526;42.070;24.752;2022-07-25T13:22:47;10.75;;;10.05;;
10947;SDS011;5526;42.070;24.752;2022-07-25T13:25:14;11.55;;;10.70;;
10947;SDS011;5526;42.070;24.752;2022-07-25T13:27:41;12.45;;;11.43;;
10947;SDS011;5526;42.070;24.752;2022-07-25T13:30:10;10.70;;;10.00;;
10947;SDS011;5526;42.070;24.752;2022-07-25T13:32:39;11.25;;;10.45;;
10947;SDS011;5526;42.070;24.752;2022-07-25T13:35:06;10.90;;;10.10;;
10947;SDS011;5526;42.070;24.752;2022-07-25T13:37:34;10.52;;;9.82;;
10947;SDS011;5526;42.070;24.752;2022-07-25T13:40:01;10.68;;;9.95;;
10947;SDS011;5526;42.070;24.752;2022-07-25T13:42:29;11.07;;;10.27;;
10947;SDS011;5526;42.070;24.752;2022-07-25T13:44:56;11.27;;;10.48;;
10947;SDS011;5526;42.070;24.752;2022-07-25T13:47:33;11.07;;;10.18;;
10947;SDS011;5526;42.070;24.752;2022-07-25T13:50:04;11.73;;;10.93;;
10947;SDS011;5526;42.070;24.752;2022-07-25T13:52:32;11.93;;;11.02;;
10947;SDS011;5526;42.070;24.752;2022-07-25T13:54:59;11.48;;;10.68;;
10947;SDS011;5526;42.070;24.752;2022-07-25T13:57:26;11.45;;;10.65;;
10947;SDS011;5526;42.070;24.752;2022-07-25T13:59:54;10.55;;;9.75;;
10947;SDS011;5526;42.070;24.752;2022-07-25T14:02:21;11.13;;;10.23;;
10947;SDS011;5526;42.070;24.752;2022-07-25T14:04:50;10.73;;;9.95;;
10947;SDS011;5526;42.070;24.752;2022-07-25T14:07:17;10.18;;;9.57;;
10947;SDS011;5526;42.070;24.752;2022-07-25T14:09:44;10.25;;;9.65;;
10947;SDS011;5526;42.070;24.752;2022-07-25T14:12:11;11.27;;;10.57;;
10947;SDS011;5526;42.070;24.752;2022-07-25T14:14:38;11.32;;;10.43;;
10947;SDS011;5526;42.070;24.752;2022-07-25T14:17:06;10.90;;;10.07;;
10947;SDS011;5526;42.070;24.752;2022-07-25T14:19:33;10.95;;;10.18;;
10947;SDS011;5526;42.070;24.752;2022-07-25T14:22:01;11.52;;;10.73;;
10947;SDS011;5526;42.070;24.752;2022-07-25T14:24:29;10.80;;;9.98;;
10947;SDS011;5526;42.070;24.752;2022-07-25T14:26:57;10.35;;;9.52;;
10947;SDS011;5526;42.070;24.752;2022-07-25T14:29:24;11.02;;;10.23;;
10947;SDS011;5526;42.070;24.752;2022-07-25T14:31:52;10.45;;;9.75;;
10947;SDS011;5526;42.070;24.752;2022-07-25T14:34:19;10.40;;;9.70;;
10947;SDS011;5526;42.070;24.752;2022-07-25T14:36:46;10.15;;;9.43;;
10947;SDS011;5526;42.070;24.752;2022-07-25T14:39:15;10.10;;;9.40;;
10947;SDS011;5526;42.070;24.752;2022-07-25T14:41:42;10.90;;;10.10;;
10947;SDS011;5526;42.070;24.752;2022-07-25T14:44:09;10.43;;;9.70;;
10947;SDS011;5526;42.070;24.752;2022-07-25T14:46:36;10.20;;;9.60;;
10947;SDS011;5526;42.070;24.752;2022-07-25T14:49:03;9.75;;;9.15;;
10947;SDS011;5526;42.070;24.752;2022-07-25T14:51:31;10.75;;;10.05;;
10947;SDS011;5526;42.070;24.752;2022-07-25T14:53:58;10.50;;;9.80;;
10947;SDS011;5526;42.070;24.752;2022-07-25T14:56:27;10.98;;;10.27;;
10947;SDS011;5526;42.070;24.752;2022-07-25T14:58:54;10.75;;;9.95;;